createdAt,value
2022-12-24T00:02:15.839Z,92337.88
2022-12-24T00:04:42.285Z,92326.34
2022-12-24T00:07:08.738Z,92340.19
2022-12-24T00:09:35.191Z,92333.91
2022-12-24T00:12:01.656Z,92337.03
2022-12-24T00:14:28.191Z,92346.94
2022-12-24T00:16:54.705Z,92341.72
2022-12-24T00:19:21.384Z,92355.81
2022-12-24T00:21:47.828Z,92350.53
2022-12-24T00:24:14.279Z,92354.25
2022-12-24T00:26:40.742Z,92341.66
2022-12-24T00:29:07.172Z,92346.13
2022-12-24T00:31:33.682Z,92347.47
2022-12-24T00:34:00.173Z,92347.44
2022-12-24T00:36:26.597Z,92349.03
2022-12-24T00:38:53.030Z,92346.16
2022-12-24T00:41:25.990Z,92339.09
2022-12-24T00:43:56.910Z,92350.63
2022-12-24T00:46:24.940Z,92349.06
2022-12-24T00:48:51.488Z,92372.28
2022-12-24T00:51:18.535Z,92376.50
2022-12-24T00:53:45.047Z,92369.44
2022-12-24T00:56:11.779Z,92376.50
2022-12-24T00:58:38.316Z,92389.06
2022-12-24T01:01:05.524Z,92384.91
2022-12-24T01:03:35.709Z,92400.06
2022-12-24T01:06:03.793Z,92410.31
2022-12-24T01:08:30.527Z,92405.53
2022-12-24T01:10:57.121Z,92401.63
2022-12-24T01:13:23.768Z,92405.56
2022-12-24T01:15:50.614Z,92410.78
2022-12-24T01:18:17.141Z,92415.25
2022-12-24T01:20:43.765Z,92413.97
2022-12-24T01:23:10.345Z,92399.56
2022-12-24T01:25:39.841Z,92415.25
2022-12-24T01:28:06.313Z,92392.25
2022-12-24T01:30:32.905Z,92402.94
2022-12-24T01:32:59.360Z,92401.09
2022-12-24T01:35:25.808Z,92399.25
2022-12-24T01:37:52.241Z,92416.53
2022-12-24T01:40:39.772Z,92402.94
2022-12-24T01:43:27.999Z,92407.09
2022-12-24T01:45:55.937Z,92416.00
2022-12-24T01:48:32.253Z,92420.69
2022-12-24T01:51:12.240Z,92408.66
2022-12-24T01:53:41.971Z,92408.66
2022-12-24T01:56:11.619Z,92411.78
2022-12-24T01:58:41.113Z,92399.25
2022-12-24T02:01:07.784Z,92417.53
2022-12-24T02:03:34.461Z,92425.16
2022-12-24T02:06:01.701Z,92418.59
2022-12-24T02:08:39.855Z,92430.38
2022-12-24T02:11:33.768Z,92445.75
2022-12-24T02:14:01.598Z,92436.88
2022-12-24T02:17:16.118Z,92420.16
2022-12-24T02:20:00.846Z,92434.03
2022-12-24T02:22:51.637Z,92440.56
2022-12-24T02:25:44.105Z,92447.84
2022-12-24T02:28:19.462Z,92441.03
2022-12-24T02:30:54.080Z,92448.81
2022-12-24T02:33:25.914Z,92457.22
2022-12-24T02:36:00.200Z,92445.19
2022-12-24T02:38:34.504Z,92444.63
2022-12-24T02:41:09.290Z,92456.38
2022-12-24T02:43:39.705Z,92454.31
2022-12-24T02:46:14.111Z,92469.72
2022-12-24T02:48:43.349Z,92480.19
2022-12-24T02:51:10.918Z,92487.44
2022-12-24T02:53:38.358Z,92474.38
2022-12-24T02:56:27.435Z,92476.97
2022-12-24T02:59:28.996Z,92471.75
2022-12-24T03:02:19.570Z,92487.97
2022-12-24T03:05:08.904Z,92485.88
2022-12-24T03:07:48.520Z,92489.53
2022-12-24T03:10:29.298Z,92509.91
2022-12-24T03:13:09.047Z,92527.16
2022-12-24T03:15:38.660Z,92528.69
2022-12-24T03:18:08.456Z,92526.84
2022-12-24T03:20:41.919Z,92528.72
2022-12-24T03:23:08.692Z,92517.75
2022-12-24T03:25:40.510Z,92522.44
2022-12-24T03:28:09.400Z,92528.69
2022-12-24T03:30:38.924Z,92518.16
2022-12-24T03:33:05.458Z,92513.34
2022-12-24T03:35:31.860Z,92511.97
2022-12-24T03:37:58.326Z,92528.91
2022-12-24T03:40:24.802Z,92533.81
2022-12-24T03:42:51.291Z,92536.69
2022-12-24T03:45:17.858Z,92540.34
2022-12-24T03:47:44.406Z,92550.00
2022-12-24T03:50:11.169Z,92552.38
2022-12-24T03:52:38.715Z,92551.28
2022-12-24T03:55:05.353Z,92541.31
2022-12-24T03:57:31.819Z,92537.19
2022-12-24T03:59:58.227Z,92544.53
2022-12-24T04:02:24.876Z,92535.44
2022-12-24T04:04:51.495Z,92520.03
2022-12-24T04:07:18.043Z,92547.81
2022-12-24T04:09:44.449Z,92551.69
2022-12-24T04:12:10.868Z,92557.06
2022-12-24T04:14:37.269Z,92560.16
2022-12-24T04:17:03.741Z,92558.09
2022-12-24T04:19:30.270Z,92557.00
2022-12-24T04:21:56.719Z,92546.06
2022-12-24T04:24:23.207Z,92563.59
2022-12-24T04:26:49.637Z,92565.16
2022-12-24T04:29:16.097Z,92573.31
2022-12-24T04:31:42.577Z,92576.72
2022-12-24T04:34:09.105Z,92568.63
2022-12-24T04:36:35.559Z,92565.16
2022-12-24T04:39:01.979Z,92568.59
2022-12-24T04:41:28.401Z,92585.28
2022-12-24T04:43:55.765Z,92588.44
2022-12-24T04:46:25.446Z,92587.94
2022-12-24T04:48:53.783Z,92588.94
2022-12-24T04:51:21.042Z,92571.69
2022-12-24T04:53:47.865Z,92579.03
2022-12-24T04:56:17.179Z,92580.06
2022-12-24T04:58:44.309Z,92570.16
2022-12-24T05:01:13.906Z,92557.09
2022-12-24T05:03:40.825Z,92563.94
2022-12-24T05:06:10.963Z,92561.59
2022-12-24T05:08:37.426Z,92569.13
2022-12-24T05:11:05.065Z,92560.25
2022-12-24T05:13:40.400Z,92561.25
2022-12-24T05:16:12.298Z,92559.16
2022-12-24T05:18:39.033Z,92553.13
2022-12-24T05:21:15.047Z,92564.94
2022-12-24T05:24:00.026Z,92574.84
2022-12-24T05:26:46.238Z,92567.25
2022-12-24T05:29:13.223Z,92578.00
2022-12-24T05:31:40.571Z,92581.66
2022-12-24T05:34:08.440Z,92576.97
2022-12-24T05:36:35.491Z,92591.78
2022-12-24T05:39:02.351Z,92587.91
2022-12-24T05:41:29.248Z,92594.69
2022-12-24T05:43:56.352Z,92601.72
2022-12-24T05:46:24.623Z,92599.38
2022-12-24T05:48:52.295Z,92598.56
2022-12-24T05:51:22.374Z,92612.44
2022-12-24T05:53:50.551Z,92595.72
2022-12-24T05:56:20.136Z,92595.25
2022-12-24T05:58:47.050Z,92604.91
2022-12-24T06:01:14.354Z,92600.97
2022-12-24T06:03:40.920Z,92616.94
2022-12-24T06:06:10.683Z,92613.03
2022-12-24T06:08:38.795Z,92627.13
2022-12-24T06:11:08.539Z,92611.47
2022-12-24T06:13:35.198Z,92620.88
2022-12-24T06:16:04.228Z,92610.75
2022-12-24T06:18:31.752Z,92617.38
2022-12-24T06:20:59.508Z,92614.22
2022-12-24T06:23:28.511Z,92620.22
2022-12-24T06:25:57.241Z,92619.44
2022-12-24T06:28:23.947Z,92618.41
2022-12-24T06:30:52.080Z,92635.16
2022-12-24T06:33:21.404Z,92630.66
2022-12-24T06:35:48.388Z,92630.97
2022-12-24T06:38:16.021Z,92626.59
2022-12-24T06:40:44.798Z,92624.41
2022-12-24T06:43:12.453Z,92624.41
2022-12-24T06:45:39.231Z,92624.41
2022-12-24T06:48:06.524Z,92617.97
2022-12-24T06:50:33.747Z,92625.88
2022-12-24T06:53:00.161Z,92622.69
2022-12-24T06:55:26.575Z,92624.94
2022-12-24T06:57:53.096Z,92627.00
2022-12-24T07:00:21.685Z,92631.94
2022-12-24T07:02:48.188Z,92628.78
2022-12-24T07:05:14.895Z,92636.53
2022-12-24T07:07:43.618Z,92624.78
2022-12-24T07:10:15.180Z,92637.03
2022-12-24T07:12:41.802Z,92636.50
2022-12-24T07:15:09.171Z,92633.81
2022-12-24T07:17:35.763Z,92636.91
2022-12-24T07:20:02.733Z,92644.19
2022-12-24T07:22:29.220Z,92646.19
2022-12-24T07:24:55.656Z,92653.53
2022-12-24T07:27:22.076Z,92662.41
2022-12-24T07:29:48.471Z,92653.53
2022-12-24T07:32:14.928Z,92655.19
2022-12-24T07:34:41.440Z,92656.47
2022-12-24T07:37:08.281Z,92663.03
2022-12-24T07:39:34.711Z,92653.13
2022-12-24T07:42:01.293Z,92663.66
2022-12-24T07:44:27.719Z,92674.56
2022-12-24T07:46:54.198Z,92680.19
2022-12-24T07:49:20.736Z,92684.66
2022-12-24T07:51:47.189Z,92681.88
2022-12-24T07:54:13.683Z,92687.16
2022-12-24T07:56:40.145Z,92696.56
2022-12-24T07:59:06.604Z,92699.59
2022-12-24T08:01:33.160Z,92698.63
2022-12-24T08:03:59.774Z,92704.19
2022-12-24T08:06:26.257Z,92700.53
2022-12-24T08:08:52.736Z,92711.75
2022-12-24T08:11:19.162Z,92720.22
2022-12-24T08:13:45.557Z,92721.31
2022-12-24T08:16:12.295Z,92733.28
2022-12-24T08:18:38.795Z,92735.41
2022-12-24T08:21:09.347Z,92739.91
2022-12-24T08:23:36.826Z,92739.84
2022-12-24T08:26:03.420Z,92738.75
2022-12-24T08:28:29.861Z,92755.44
2022-12-24T08:30:56.296Z,92744.56
2022-12-24T08:33:22.760Z,92746.53
2022-12-24T08:35:50.927Z,92741.16
2022-12-24T08:38:17.715Z,92737.81
2022-12-24T08:40:44.970Z,92744.63
2022-12-24T08:43:11.403Z,92753.66
2022-12-24T08:45:40.981Z,92754.22
2022-12-24T08:48:08.899Z,92771.63
2022-12-24T08:50:38.111Z,92752.63
2022-12-24T08:53:04.560Z,92748.81
2022-12-24T08:55:31.020Z,92754.75
2022-12-24T08:57:58.380Z,92740.38
2022-12-24T09:00:24.806Z,92740.19
2022-12-24T09:02:51.688Z,92742.16
2022-12-24T09:05:18.611Z,92740.44
2022-12-24T09:07:45.065Z,92740.31
2022-12-24T09:10:11.960Z,92756.06
2022-12-24T09:12:38.669Z,92769.19
2022-12-24T09:15:08.075Z,92766.56
2022-12-24T09:17:35.812Z,92772.31
2022-12-24T09:20:03.521Z,92776.00
2022-12-24T09:22:29.976Z,92776.53
2022-12-24T09:24:56.462Z,92775.53
2022-12-24T09:27:22.982Z,92781.00
2022-12-24T09:29:49.533Z,92777.41
2022-12-24T09:32:16.032Z,92773.56
2022-12-24T09:34:42.538Z,92781.00
2022-12-24T09:37:08.955Z,92767.97
2022-12-24T09:39:35.445Z,92767.09
2022-12-24T09:42:20.347Z,92773.63
2022-12-24T09:45:16.639Z,92775.03
2022-12-24T09:47:53.109Z,92770.28
2022-12-24T09:50:41.989Z,92781.38
2022-12-24T09:53:39.885Z,92786.88
2022-12-24T09:56:13.107Z,92794.03
2022-12-24T09:58:53.326Z,92792.81
2022-12-24T10:01:20.153Z,92791.19
2022-12-24T10:03:47.503Z,92792.53
2022-12-24T10:06:29.100Z,92810.06
2022-12-24T10:09:22.501Z,92798.78
2022-12-24T10:12:06.868Z,92801.47
2022-12-24T10:14:40.467Z,92802.25
2022-12-24T10:17:23.568Z,92803.91
2022-12-24T10:20:13.047Z,92798.00
2022-12-24T10:23:20.612Z,92801.72
2022-12-24T10:26:24.907Z,92802.31
2022-12-24T10:29:02.150Z,92805.97
2022-12-24T10:31:31.889Z,92800.50
2022-12-24T10:34:02.617Z,92800.00
2022-12-24T10:36:31.333Z,92806.31
2022-12-24T10:38:58.446Z,92806.91
2022-12-24T10:41:27.462Z,92797.88
2022-12-24T10:43:55.048Z,92801.44
2022-12-24T10:46:28.152Z,92805.63
2022-12-24T10:49:04.292Z,92794.66
2022-12-24T10:51:37.399Z,92800.00
2022-12-24T10:54:13.788Z,92816.88
2022-12-24T10:56:42.711Z,92817.00
2022-12-24T10:59:25.157Z,92824.56
2022-12-24T11:01:52.720Z,92821.06
2022-12-24T11:04:22.365Z,92821.06
2022-12-24T11:07:03.711Z,92814.78
2022-12-24T11:09:32.921Z,92818.63
2022-12-24T11:12:08.388Z,92814.69
2022-12-24T11:14:38.565Z,92812.72
2022-12-24T11:17:05.831Z,92814.31
2022-12-24T11:19:41.285Z,92809.72
2022-12-24T11:22:19.374Z,92820.00
2022-12-24T11:24:50.093Z,92810.47
2022-12-24T11:27:25.398Z,92803.41
2022-12-24T11:29:51.876Z,92810.22
2022-12-24T11:32:22.104Z,92805.53
2022-12-24T11:34:49.139Z,92803.19
2022-12-24T11:37:22.175Z,92805.31
2022-12-24T11:39:58.174Z,92806.59
2022-12-24T11:42:37.145Z,92805.00
2022-12-24T11:45:20.945Z,92804.53
2022-12-24T11:47:47.407Z,92797.19
2022-12-24T11:50:30.139Z,92792.47
2022-12-24T11:53:02.466Z,92798.19
2022-12-24T11:55:52.794Z,92785.50
2022-12-24T11:58:41.353Z,92789.16
2022-12-24T12:01:20.245Z,92792.28
2022-12-24T12:03:53.865Z,92798.56
2022-12-24T12:06:25.112Z,92803.75
2022-12-24T12:08:57.245Z,92804.69
2022-12-24T12:11:26.171Z,92804.13
2022-12-24T12:13:53.479Z,92795.78
2022-12-24T12:17:01.211Z,92793.25
2022-12-24T12:19:52.559Z,92786.34
2022-12-24T12:22:44.404Z,92782.72
2022-12-24T12:25:26.298Z,92789.59
2022-12-24T12:27:56.048Z,92795.13
2022-12-24T12:30:24.354Z,92790.38
2022-12-24T12:33:02.589Z,92787.13
2022-12-24T12:35:43.725Z,92794.97
2022-12-24T12:38:20.827Z,92797.03
2022-12-24T12:41:16.612Z,92799.97
2022-12-24T12:44:20.879Z,92797.63
2022-12-24T12:47:00.992Z,92804.22
2022-12-24T12:49:55.711Z,92797.41
2022-12-24T12:52:51.560Z,92798.19
2022-12-24T12:55:36.300Z,92797.13
2022-12-24T12:58:16.407Z,92794.03
2022-12-24T13:00:47.377Z,92801.91
2022-12-24T13:03:13.911Z,92797.94
2022-12-24T13:06:06.583Z,92788.22
2022-12-24T13:09:01.229Z,92789.25
2022-12-24T13:11:56.615Z,92782.19
2022-12-24T13:14:29.028Z,92776.94
2022-12-24T13:17:32.391Z,92768.31
2022-12-24T13:20:01.783Z,92774.91
2022-12-24T13:22:28.648Z,92777.75
2022-12-24T13:24:56.683Z,92779.34
2022-12-24T13:27:28.240Z,92780.38
2022-12-24T13:30:07.244Z,92784.63
2022-12-24T13:32:48.524Z,92783.59
2022-12-24T13:35:21.180Z,92793.56
2022-12-24T13:37:48.859Z,92790.13
2022-12-24T13:40:25.539Z,92780.75
2022-12-24T13:42:58.004Z,92775.94
2022-12-24T13:45:33.485Z,92778.31
2022-12-24T13:48:05.916Z,92772.03
2022-12-24T13:50:48.989Z,92763.09
2022-12-24T13:53:43.616Z,92768.59
2022-12-24T13:56:25.096Z,92765.19
2022-12-24T13:59:08.980Z,92760.25
2022-12-24T14:01:39.852Z,92764.72
2022-12-24T14:04:14.095Z,92770.94
2022-12-24T14:06:42.190Z,92778.00
2022-12-24T14:09:15.952Z,92783.53
2022-12-24T14:12:01.288Z,92781.44
2022-12-24T14:14:32.255Z,92781.66
2022-12-24T14:17:01.308Z,92784.25
2022-12-24T14:19:47.551Z,92792.31
2022-12-24T14:22:35.642Z,92794.94
2022-12-24T14:25:19.696Z,92788.06
2022-12-24T14:28:04.821Z,92782.81
2022-12-24T14:30:32.413Z,92785.44
2022-12-24T14:32:58.920Z,92785.16
2022-12-24T14:35:38.087Z,92781.19
2022-12-24T14:38:07.836Z,92790.59
2022-12-24T14:40:43.251Z,92781.63
2022-12-24T14:43:22.614Z,92792.13
2022-12-24T14:46:03.191Z,92780.56
2022-12-24T14:48:41.191Z,92782.06
2022-12-24T14:51:47.491Z,92797.78
2022-12-24T14:54:37.501Z,92800.31
2022-12-24T14:57:25.277Z,92797.66
2022-12-24T15:00:02.066Z,92796.59
2022-12-24T15:02:42.014Z,92783.47
2022-12-24T15:05:14.414Z,92785.50
2022-12-24T15:07:47.461Z,92784.44
2022-12-24T15:10:28.984Z,92779.97
2022-12-24T15:12:58.374Z,92769.72
2022-12-24T15:15:25.117Z,92772.88
2022-12-24T15:17:52.152Z,92778.59
2022-12-24T15:20:21.772Z,92781.22
2022-12-24T15:22:52.813Z,92791.16
2022-12-24T15:25:22.938Z,92791.59
2022-12-24T15:27:50.083Z,92801.00
2022-12-24T15:30:20.930Z,92809.59
2022-12-24T15:32:49.810Z,92818.97
2022-12-24T15:35:47.524Z,92812.41
2022-12-24T15:38:25.607Z,92824.72
2022-12-24T15:40:53.203Z,92816.03
2022-12-24T15:43:20.182Z,92812.81
2022-12-24T15:45:48.570Z,92824.03
2022-12-24T15:48:21.214Z,92819.03
2022-12-24T15:50:50.069Z,92829.50
2022-12-24T15:53:22.958Z,92835.22
2022-12-24T15:56:12.295Z,92840.72
2022-12-24T15:58:44.679Z,92843.09
2022-12-24T16:01:14.423Z,92842.06
2022-12-24T16:04:02.223Z,92837.31
2022-12-24T16:06:56.201Z,92838.34
2022-12-24T16:09:42.385Z,92839.38
2022-12-24T16:12:22.170Z,92840.91
2022-12-24T16:14:52.156Z,92843.22
2022-12-24T16:17:24.241Z,92841.91
2022-12-24T16:19:53.740Z,92842.94
2022-12-24T16:22:31.700Z,92845.00
2022-12-24T16:25:27.045Z,92844.44
2022-12-24T16:27:55.513Z,92846.53
2022-12-24T16:30:24.042Z,92848.03
2022-12-24T16:32:51.294Z,92844.41
2022-12-24T16:35:26.582Z,92847.00
2022-12-24T16:37:54.476Z,92846.47
2022-12-24T16:40:26.860Z,92847.72
2022-12-24T16:43:13.234Z,92847.44
2022-12-24T16:45:39.867Z,92850.84
2022-12-24T16:48:07.426Z,92850.84
2022-12-24T16:50:34.496Z,92844.25
2022-12-24T16:53:01.039Z,92847.13
2022-12-24T16:55:27.554Z,92846.31
2022-12-24T16:57:54.136Z,92843.97
2022-12-24T17:00:22.624Z,92846.31
2022-12-24T17:02:50.225Z,92844.75
2022-12-24T17:05:17.180Z,92847.84
2022-12-24T17:07:44.421Z,92847.31
2022-12-24T17:10:12.812Z,92856.44
2022-12-24T17:12:39.347Z,92858.25
2022-12-24T17:15:06.641Z,92850.66
2022-12-24T17:17:34.280Z,92865.56
2022-12-24T17:20:00.983Z,92868.41
2022-12-24T17:22:27.753Z,92869.72
2022-12-24T17:24:55.405Z,92867.56
2022-12-24T17:27:22.927Z,92879.03
2022-12-24T17:29:49.695Z,92883.72
2022-12-24T17:32:16.352Z,92885.84
2022-12-24T17:34:42.896Z,92883.19
2022-12-24T17:37:09.428Z,92888.09
2022-12-24T17:39:35.989Z,92891.03
2022-12-24T17:42:02.819Z,92890.25
2022-12-24T17:44:29.317Z,92886.34
2022-12-24T17:46:56.544Z,92891.03
2022-12-24T17:49:23.238Z,92893.66
2022-12-24T17:51:49.843Z,92895.88
2022-12-24T17:54:16.395Z,92890.91
2022-12-24T17:56:42.956Z,92886.44
2022-12-24T17:59:09.719Z,92885.09
2022-12-24T18:01:36.596Z,92887.47
2022-12-24T18:04:04.040Z,92886.44
2022-12-24T18:06:30.720Z,92896.34
2022-12-24T18:08:57.647Z,92887.16
2022-12-24T18:11:26.939Z,92885.56
2022-12-24T18:13:55.609Z,92890.25
2022-12-24T18:16:29.455Z,92887.16
2022-12-24T18:18:57.316Z,92893.97
2022-12-24T18:21:26.094Z,92891.34
2022-12-24T18:23:56.474Z,92889.53
2022-12-24T18:26:25.445Z,92879.56
2022-12-24T18:28:57.003Z,92874.56
2022-12-24T18:31:25.044Z,92873.47
2022-12-24T18:33:53.017Z,92877.91
2022-12-24T18:36:20.666Z,92881.31
2022-12-24T18:38:48.040Z,92875.28
2022-12-24T18:41:18.760Z,92881.78
2022-12-24T18:43:45.524Z,92871.56
2022-12-24T18:46:18.661Z,92875.47
2022-12-24T18:48:45.852Z,92880.22
2022-12-24T18:51:12.392Z,92878.94
2022-12-24T18:53:39.531Z,92880.69
2022-12-24T18:56:11.190Z,92878.63
2022-12-24T18:58:38.007Z,92882.03
2022-12-24T19:01:19.810Z,92882.28
2022-12-24T19:03:47.483Z,92881.72
2022-12-24T19:06:14.067Z,92890.34
2022-12-24T19:08:59.221Z,92888.44
2022-12-24T19:11:28.707Z,92884.78
2022-12-24T19:13:55.520Z,92897.16
2022-12-24T19:16:22.570Z,92886.69
2022-12-24T19:18:49.551Z,92889.09
2022-12-24T19:21:17.769Z,92887.50
2022-12-24T19:23:45.908Z,92885.94
2022-12-24T19:26:14.132Z,92879.13
2022-12-24T19:28:40.703Z,92883.88
2022-12-24T19:31:16.496Z,92877.06
2022-12-24T19:33:45.767Z,92880.69
2022-12-24T19:36:15.995Z,92880.13
2022-12-24T19:38:42.834Z,92888.75
2022-12-24T19:41:20.934Z,92895.72
2022-12-24T19:43:50.619Z,92885.69
2022-12-24T19:46:19.938Z,92889.19
2022-12-24T19:48:54.466Z,92891.22
2022-12-24T19:51:22.635Z,92887.81
2022-12-24T19:53:49.549Z,92894.63
2022-12-24T19:56:20.714Z,92896.22
2022-12-24T19:58:47.767Z,92903.25
2022-12-24T20:01:17.740Z,92912.13
2022-12-24T20:03:45.778Z,92907.91
2022-12-24T20:06:14.120Z,92911.91
2022-12-24T20:08:40.866Z,92912.69
2022-12-24T20:11:09.679Z,92916.50
2022-12-24T20:13:37.753Z,92917.81
2022-12-24T20:16:07.202Z,92911.56
2022-12-24T20:18:34.111Z,92911.56
2022-12-24T20:21:02.375Z,92921.25
2022-12-24T20:23:29.396Z,92918.16
2022-12-24T20:26:00.763Z,92920.78
2022-12-24T20:28:30.245Z,92927.34
2022-12-24T20:30:56.893Z,92926.78
2022-12-24T20:33:24.445Z,92923.59
2022-12-24T20:35:51.256Z,92920.78
2022-12-24T20:38:18.232Z,92919.66
2022-12-24T20:40:46.134Z,92935.09
2022-12-24T20:43:13.271Z,92929.63
2022-12-24T20:45:39.803Z,92934.06
2022-12-24T20:48:06.642Z,92940.56
2022-12-24T20:50:33.226Z,92933.28
2022-12-24T20:52:59.654Z,92937.97
2022-12-24T20:55:26.131Z,92935.00
2022-12-24T20:57:52.591Z,92932.97
2022-12-24T21:00:19.945Z,92931.38
2022-12-24T21:02:47.156Z,92940.03
2022-12-24T21:05:13.732Z,92937.06
2022-12-24T21:07:40.649Z,92937.06
2022-12-24T21:10:12.230Z,92942.63
2022-12-24T21:12:58.751Z,92936.38
2022-12-24T21:15:34.988Z,92932.19
2022-12-24T21:18:09.882Z,92935.25
2022-12-24T21:20:36.348Z,92933.44
2022-12-24T21:23:03.070Z,92934.69
2022-12-24T21:25:29.623Z,92935.00
2022-12-24T21:27:56.143Z,92927.09
2022-12-24T21:30:22.900Z,92927.09
2022-12-24T21:32:49.363Z,92928.34
2022-12-24T21:35:16.095Z,92929.16
2022-12-24T21:37:42.487Z,92917.44
2022-12-24T21:40:10.544Z,92913.78
2022-12-24T21:42:37.489Z,92911.72
2022-12-24T21:45:05.997Z,92913.22
2022-12-24T21:47:34.979Z,92912.69
2022-12-24T21:50:20.534Z,92911.91
2022-12-24T21:52:47.068Z,92907.13
2022-12-24T21:55:13.554Z,92914.41
2022-12-24T21:57:52.458Z,92908.72
2022-12-24T22:00:21.749Z,92904.28
2022-12-24T22:02:54.538Z,92912.34
2022-12-24T22:05:22.726Z,92907.94
2022-12-24T22:08:07.826Z,92901.34
2022-12-24T22:10:53.282Z,92903.41
2022-12-24T22:13:20.530Z,92904.22
2022-12-24T22:15:49.353Z,92901.03
2022-12-24T22:18:17.857Z,92901.59
2022-12-24T22:20:45.936Z,92899.53
2022-12-24T22:23:13.853Z,92895.56
2022-12-24T22:25:41.500Z,92898.72
2022-12-24T22:28:07.976Z,92889.09
2022-12-24T22:30:38.704Z,92893.75
2022-12-24T22:33:06.378Z,92892.47
2022-12-24T22:35:33.704Z,92883.88
2022-12-24T22:38:00.673Z,92894.31
2022-12-24T22:40:27.896Z,92887.50
2022-12-24T22:42:54.488Z,92893.50
2022-12-24T22:45:22.733Z,92894.78
2022-12-24T22:47:49.657Z,92890.59
2022-12-24T22:50:16.293Z,92898.97
2022-12-24T22:52:43.196Z,92898.88
2022-12-24T22:55:09.733Z,92892.06
2022-12-24T22:57:36.235Z,92886.06
2022-12-24T23:00:08.892Z,92888.44
2022-12-24T23:02:35.473Z,92888.44
2022-12-24T23:05:02.174Z,92887.66
2022-12-24T23:07:28.631Z,92890.97
2022-12-24T23:09:55.067Z,92887.25
2022-12-24T23:12:41.457Z,92892.00
2022-12-24T23:15:08.403Z,92891.78
2022-12-24T23:17:34.884Z,92895.16
2022-12-24T23:20:02.620Z,92891.84
2022-12-24T23:22:29.712Z,92887.66
2022-12-24T23:24:56.229Z,92884.22
2022-12-24T23:27:22.688Z,92881.88
2022-12-24T23:29:49.104Z,92884.81
2022-12-24T23:32:15.517Z,92882.19
2022-12-24T23:34:42.001Z,92872.31
2022-12-24T23:37:08.444Z,92872.53
2022-12-24T23:39:34.994Z,92874.38
2022-12-24T23:42:01.469Z,92875.47
2022-12-24T23:44:32.254Z,92873.41
2022-12-24T23:46:59.436Z,92870.25
2022-12-24T23:49:26.713Z,92864.22
2022-12-24T23:51:53.181Z,92866.81
2022-12-24T23:54:19.826Z,92860.03
2022-12-24T23:56:46.413Z,92867.09
2022-12-24T23:59:12.918Z,92870.25
